AirNav   SIMCOM
 
 1129 users online  

UT39 A A Helicopters Inc Heliport
North Salt Lake, Utah, USA

GOING TO NORTH SALT LAKE?


FAA INFORMATION EFFECTIVE 09 NOVEMBER 2017

Location

FAA Identifier: UT39
Lat/Long: 40-51-29.8020N / 111-56-04.7800W
40-51.496700N / 111-56.079667W
40.8582783 / -111.9346611
(estimated)
Elevation: 4234 ft. / 1291 m (estimated)
Variation: 15E (1985)
From city: 1 mile NW of NORTH SALT LAKE, UT
Time zone: UTC -7 (UTC -6 during Daylight Saving Time)
Zip code: 84087

Heliport Operations

Heliport use: Private use. Permission required prior to landing
Activation date: 01/1980
Control tower: no
ARTCC: SALT LAKE CITY CENTER
FSS: CEDAR CITY FLIGHT SERVICE STATION
Attendance: MON-FRI 0800-1700
Wind indicator: yes
Segmented circle: no

Heliport Communications

WX ASOS at SLC (5 nm SW): PHONE 801-328-3567
WX AWOS-3 at U42 (15 nm S): 134.425 (801-562-0271)

Nearby radio navigation aids

VOR radial/distance  VOR name  Freq  Var
TCHr061/2.2WASATCH VORTAC116.8016E
OGDr147/23.2OGDEN VORTAC115.7014E
FFUr344/35.0FAIRFIELD VORTAC116.6016E
PVUr331/39.8PROVO VOR/DME108.4015E

Heliport Services

Runway Information

Helipad H1

Dimensions: 200 x 150 ft. / 61 x 46 m
Surface: turf
Latitude: 40-51.496700N
Longitude: 111-56.079667W
Elevation: 4234.0 ft.
Traffic pattern: leftleft

Heliport Ownership and Management from official FAA records

Ownership: Privately-owned
Owner: A A HELICOPTERS INC
1887 SOUTH 1800 WEST
WOODS CROSS, UTAH 84087
Phone 801-292-6202
Manager: WARREN R ROGERS
246 E HELM AVE, NO 11
SALT LAKE CITY, UT 84115
Phone 801-292-5041

Heliport Operational Statistics

Aircraft based on the field: 2
Helicopters: 2
    

Instrument Procedures

There are no published instrument procedures at UT39.

Some nearby airports with instrument procedures:

KSLC - Salt Lake City International Airport (5 nm SW)
U42 - South Valley Regional Airport (15 nm S)
KHIF - Hill Air Force Base (16 nm N)
KOGD - Ogden-Hinckley Airport (21 nm N)
KTVY - Bolinder Field-Tooele Valley Airport (24 nm SW)
 
Loc | Ops | Rwys | IFR | FBO | Links
Com | Nav | Svcs | Stats | Notes

TAC Air
 
Area around UT39 (A A Helicopters Inc Heliport)
 
Road maps at: MapQuest Bing Google
 
Aerial photo
No photo
 
Sectional chart

 
Airport distance calculator
Flying to A A Helicopters Inc Heliport? Find the distance to fly.

From to UT39

Sunrise and sunset
Times for 21-Nov-2017
 Local
(UTC-7)
 Zulu
(UTC)
Morning civil twilight06:5313:53
Sunrise07:2314:23
Sunset17:0400:04
Evening civil twilight17:3400:34

Current date and time
Zulu (UTC)  21-Nov-2017 23:00:15
Local (UTC-7)  21-Nov-2017 16:00:15
 
METAR
KSLC 
5nm S 
212254Z 32006KT 10SM FEW055 SCT100 BKN210 17/05 A3033 RMK AO2 SLP252 ACSL DSNT NE T01670050 $
KU42 
15nm S 
212255Z AUTO 33007KT 10SM CLR 14/06 A3035 RMK AO1 T01420064
KHIF 
16nm N 
212158Z AUTO 25003KT 10SM CLR 14/03 A3033 RMK AO2 SLP247 T01400032
TAF
KSLC 
5nm S 
212110Z 2121/2224 34005KT P6SM SCT040 BKN090 FM220300 15005KT P6SM SCT070 BKN120
KHIF 
16nm N 
212102Z 2121/2303 VRB06KT 9999 FEW040 SCT070 SCT220 QNH3032INS BECMG 2216/2217 VRB06KT 9999 FEW220 QNH3043INS TX15/2122Z TN05/2212Z
NOTAMs
Click for the latest NOTAMs
NOTAMs are issued by the DoD/FAA and will open in a separate window not controlled by AirNav.

 

 
 

Would you like to see your business listed on this page?

 If your business provides an interesting product or service to pilots, flight crews, aircraft, or users of the A A Helicopters Inc Heliport, you should consider listing it here.  To start the listing process, click on the button below
 
Add a business
 

Other Pages about A A Helicopters Inc Heliport

Update a link
 
Copyright © AirNav, LLC. All rights reserved. Privacy Policy  Contact